createdAt,value
2022-08-16T00:00:20.417Z,99.90
2022-08-16T00:02:50.178Z,99.90
2022-08-16T00:05:19.491Z,99.90
2022-08-16T00:07:47.772Z,99.90
2022-08-16T00:10:20.644Z,99.90
2022-08-16T00:12:48.591Z,99.90
2022-08-16T00:15:20.444Z,99.90
2022-08-16T00:17:57.014Z,99.90
2022-08-16T00:20:24.890Z,99.90
2022-08-16T00:22:53.194Z,99.90
2022-08-16T00:25:49.608Z,99.90
2022-08-16T00:28:11.068Z,99.90
2022-08-16T00:30:39.503Z,99.90
2022-08-16T00:33:07.144Z,99.90
2022-08-16T00:35:38.563Z,99.90
2022-08-16T00:38:40.525Z,99.90
2022-08-16T00:40:55.373Z,99.90
2022-08-16T00:43:26.127Z,99.90
2022-08-16T00:46:32.961Z,99.90
2022-08-16T00:49:01.483Z,99.90
2022-08-16T00:51:29.780Z,99.90
2022-08-16T00:53:58.580Z,99.90
2022-08-16T00:56:57.703Z,99.90
2022-08-16T00:59:18.702Z,99.90
2022-08-16T01:01:46.016Z,99.90
2022-08-16T01:04:29.290Z,99.90
2022-08-16T01:07:01.834Z,99.90
2022-08-16T01:09:33.588Z,99.90
2022-08-16T01:12:01.619Z,99.90
2022-08-16T01:14:32.647Z,99.90
2022-08-16T01:17:01.332Z,99.90
2022-08-16T01:19:32.282Z,99.90
2022-08-16T01:22:48.318Z,99.90
2022-08-16T01:24:55.611Z,99.90
2022-08-16T01:27:25.801Z,99.90
2022-08-16T01:29:59.691Z,99.90
2022-08-16T01:32:33.340Z,99.90
2022-08-16T01:35:04.184Z,99.90
2022-08-16T01:37:38.714Z,99.90
2022-08-16T01:40:08.083Z,99.90
2022-08-16T01:42:35.263Z,99.90
2022-08-16T01:45:02.167Z,99.90
2022-08-16T01:47:29.983Z,99.90
2022-08-16T01:50:42.455Z,99.90
2022-08-16T01:52:46.979Z,99.90
2022-08-16T01:55:16.884Z,99.90
2022-08-16T01:57:53.500Z,99.90
2022-08-16T02:00:28.893Z,99.90
2022-08-16T02:02:56.622Z,99.90
2022-08-16T02:05:23.776Z,99.90
2022-08-16T02:07:52.136Z,99.90
2022-08-16T02:10:21.165Z,99.90
2022-08-16T02:12:51.327Z,99.90
2022-08-16T02:15:25.896Z,99.90
2022-08-16T02:17:52.898Z,99.90
2022-08-16T02:20:26.211Z,99.90
2022-08-16T02:22:55.123Z,99.90
2022-08-16T02:25:23.331Z,99.90
2022-08-16T02:27:51.406Z,99.90
2022-08-16T02:30:35.784Z,99.90
2022-08-16T02:33:05.888Z,99.90
2022-08-16T02:35:34.012Z,99.90
2022-08-16T02:38:08.462Z,99.90
2022-08-16T02:40:36.678Z,99.90
2022-08-16T02:43:04.296Z,99.90
2022-08-16T02:45:31.679Z,99.90
2022-08-16T02:48:01.702Z,99.90
2022-08-16T02:50:54.919Z,99.90
2022-08-16T02:53:33.109Z,99.90
2022-08-16T02:56:01.128Z,99.90
2022-08-16T02:58:28.323Z,99.90
2022-08-16T03:00:57.223Z,99.90
2022-08-16T03:03:24.632Z,99.90
2022-08-16T03:05:52.534Z,99.90
2022-08-16T03:08:49.668Z,99.90
2022-08-16T03:11:16.977Z,99.90
2022-08-16T03:13:51.367Z,99.90
2022-08-16T03:16:38.434Z,99.90
2022-08-16T03:19:08.033Z,99.90
2022-08-16T03:21:38.168Z,99.90
2022-08-16T03:24:29.195Z,99.90
2022-08-16T03:26:57.999Z,99.90
2022-08-16T03:29:26.632Z,99.90
2022-08-16T03:31:57.657Z,99.90
2022-08-16T03:34:26.704Z,99.90
2022-08-16T03:36:53.684Z,99.90
2022-08-16T03:39:20.691Z,99.90
2022-08-16T03:41:50.881Z,99.90
2022-08-16T03:44:44.404Z,99.90
2022-08-16T03:47:10.413Z,99.90
2022-08-16T03:49:37.733Z,99.90
2022-08-16T03:52:06.667Z,99.90
2022-08-16T03:54:35.617Z,99.90
2022-08-16T03:57:03.036Z,99.90
2022-08-16T03:59:32.652Z,99.90
2022-08-16T04:02:00.818Z,99.90
2022-08-16T04:04:32.780Z,99.90
2022-08-16T04:07:00.744Z,99.90
2022-08-16T04:09:30.312Z,99.90
2022-08-16T04:11:57.100Z,99.90
2022-08-16T04:14:32.790Z,99.90
2022-08-16T04:17:01.733Z,99.90
2022-08-16T04:19:31.512Z,99.90
2022-08-16T04:21:58.370Z,99.90
2022-08-16T04:24:28.770Z,99.90
2022-08-16T04:26:56.046Z,99.90
2022-08-16T04:29:25.101Z,99.90
2022-08-16T04:31:56.590Z,99.90
2022-08-16T04:34:26.805Z,99.90
2022-08-16T04:36:53.805Z,99.90
2022-08-16T04:39:24.081Z,99.90
2022-08-16T04:41:56.869Z,99.90
2022-08-16T04:44:52.842Z,99.90
2022-08-16T04:47:23.949Z,99.90
2022-08-16T04:49:52.682Z,99.90
2022-08-16T04:52:33.917Z,99.90
2022-08-16T04:55:05.395Z,99.90
2022-08-16T04:57:32.127Z,99.90
2022-08-16T04:59:58.804Z,99.90
2022-08-16T05:02:45.982Z,99.90
2022-08-16T05:05:17.653Z,99.90
2022-08-16T05:07:57.956Z,99.90
2022-08-16T05:10:27.903Z,99.90
2022-08-16T05:12:55.039Z,99.90
2022-08-16T05:15:23.861Z,99.90
2022-08-16T05:17:55.547Z,99.90
2022-08-16T05:20:39.210Z,99.90
2022-08-16T05:23:15.026Z,99.90
2022-08-16T05:25:48.274Z,99.90
2022-08-16T05:28:15.799Z,99.90
2022-08-16T05:30:43.662Z,99.90
2022-08-16T05:33:16.280Z,99.90
2022-08-16T05:35:44.466Z,99.90
2022-08-16T05:38:33.363Z,99.90
2022-08-16T05:41:07.473Z,99.90
2022-08-16T05:43:43.657Z,99.90
2022-08-16T05:46:29.747Z,99.90
2022-08-16T05:49:03.143Z,99.90
2022-08-16T05:51:35.406Z,99.90
2022-08-16T05:54:06.076Z,99.90
2022-08-16T05:56:32.967Z,99.90
2022-08-16T05:59:01.016Z,99.90
2022-08-16T06:01:28.390Z,99.90
2022-08-16T06:03:59.779Z,99.90
2022-08-16T06:06:28.095Z,99.90
2022-08-16T06:08:56.614Z,99.90
2022-08-16T06:11:25.521Z,99.90
2022-08-16T06:13:52.370Z,99.90
2022-08-16T06:16:22.282Z,99.90
2022-08-16T06:18:54.200Z,99.90
2022-08-16T06:21:22.529Z,99.90
2022-08-16T06:23:54.070Z,99.90
2022-08-16T06:26:22.833Z,99.90
2022-08-16T06:28:49.612Z,99.90
2022-08-16T06:31:24.867Z,99.90
2022-08-16T06:33:52.570Z,99.90
2022-08-16T06:36:21.726Z,99.90
2022-08-16T06:38:55.579Z,99.90
2022-08-16T06:41:24.227Z,99.90
2022-08-16T06:43:55.995Z,99.90
2022-08-16T06:46:31.378Z,99.90
2022-08-16T06:48:58.908Z,99.90
2022-08-16T06:51:45.264Z,99.90
2022-08-16T06:54:14.147Z,99.90
2022-08-16T06:56:42.839Z,99.90
2022-08-16T06:59:10.459Z,99.90
2022-08-16T07:01:46.229Z,99.90
2022-08-16T07:04:31.612Z,99.90
2022-08-16T07:07:09.676Z,99.90
2022-08-16T07:09:37.361Z,99.90
2022-08-16T07:12:05.935Z,99.90
2022-08-16T07:14:33.947Z,99.90
2022-08-16T07:17:02.654Z,99.90
2022-08-16T07:20:01.568Z,99.90
2022-08-16T07:22:38.781Z,99.90
2022-08-16T07:25:07.486Z,99.90
2022-08-16T07:27:37.425Z,99.90
2022-08-16T07:30:39.372Z,99.90
2022-08-16T07:32:54.823Z,99.90
2022-08-16T07:35:22.969Z,99.90
2022-08-16T07:37:49.779Z,99.90
2022-08-16T07:40:17.050Z,99.90
2022-08-16T07:42:45.530Z,99.90
2022-08-16T07:45:12.791Z,99.90
2022-08-16T07:47:40.127Z,99.90
2022-08-16T07:50:10.510Z,99.90
2022-08-16T07:52:57.509Z,99.90
2022-08-16T07:55:27.182Z,99.90
2022-08-16T07:58:00.746Z,99.90
2022-08-16T08:00:29.735Z,99.90
2022-08-16T08:02:58.132Z,99.90
2022-08-16T08:05:35.747Z,99.90
2022-08-16T08:08:11.599Z,99.90
2022-08-16T08:10:53.506Z,99.90
2022-08-16T08:13:41.861Z,99.90
2022-08-16T08:16:09.612Z,99.90
2022-08-16T08:18:50.505Z,99.90
2022-08-16T08:21:26.380Z,99.90
2022-08-16T08:23:55.772Z,99.90
2022-08-16T08:26:24.516Z,99.90
2022-08-16T08:28:52.574Z,99.90
2022-08-16T08:31:20.229Z,99.90
2022-08-16T08:33:51.407Z,99.90
2022-08-16T08:36:33.060Z,99.90
2022-08-16T08:39:02.166Z,99.90
2022-08-16T08:41:29.065Z,99.90
2022-08-16T08:43:57.248Z,99.90
2022-08-16T08:46:25.014Z,99.90
2022-08-16T08:48:58.375Z,99.90
2022-08-16T08:51:27.599Z,99.90
2022-08-16T08:53:59.084Z,99.90
2022-08-16T08:56:26.050Z,99.90
2022-08-16T08:58:58.088Z,99.90
2022-08-16T09:01:31.985Z,99.90
2022-08-16T09:04:05.165Z,99.90
2022-08-16T09:06:32.409Z,99.90
2022-08-16T09:09:00.329Z,99.90
2022-08-16T09:11:40.506Z,99.90
2022-08-16T09:14:08.643Z,99.90
2022-08-16T09:17:00.735Z,99.90
2022-08-16T09:19:32.813Z,99.90
2022-08-16T09:22:01.592Z,99.90
2022-08-16T09:24:53.359Z,99.90
2022-08-16T09:27:18.081Z,99.90
2022-08-16T09:29:46.376Z,99.90
2022-08-16T09:32:28.831Z,99.90
2022-08-16T09:34:58.449Z,99.90
2022-08-16T09:37:29.708Z,99.90
2022-08-16T09:39:57.038Z,99.90
2022-08-16T09:42:27.280Z,99.90
2022-08-16T09:45:12.113Z,99.90
2022-08-16T09:47:57.774Z,99.90
2022-08-16T09:50:36.768Z,99.90
2022-08-16T09:53:08.209Z,99.90
2022-08-16T09:55:44.557Z,99.90
2022-08-16T09:58:13.052Z,99.90
2022-08-16T10:01:01.023Z,99.90
2022-08-16T10:03:30.362Z,99.90
2022-08-16T10:05:58.252Z,99.90
2022-08-16T10:08:26.526Z,99.90
2022-08-16T10:11:12.447Z,99.90
2022-08-16T10:13:40.823Z,99.90
2022-08-16T10:16:08.401Z,99.90
2022-08-16T10:19:00.378Z,99.90
2022-08-16T10:21:24.692Z,99.90
2022-08-16T10:23:56.166Z,99.90
2022-08-16T10:27:19.014Z,99.90
2022-08-16T10:29:11.403Z,99.90
2022-08-16T10:31:44.264Z,99.90
2022-08-16T10:34:31.794Z,99.90
2022-08-16T10:36:59.802Z,99.90
2022-08-16T10:39:40.630Z,99.90
2022-08-16T10:42:08.825Z,99.90
2022-08-16T10:44:35.575Z,99.90
2022-08-16T10:47:02.508Z,99.90
2022-08-16T10:49:30.040Z,99.90
2022-08-16T10:52:03.071Z,99.90
2022-08-16T10:55:40.909Z,99.90
2022-08-16T10:57:32.932Z,99.90
2022-08-16T11:00:01.302Z,99.90
2022-08-16T11:02:57.881Z,99.90
2022-08-16T11:05:17.069Z,99.90
2022-08-16T11:07:53.667Z,99.90
2022-08-16T11:16:00.787Z,99.90
2022-08-16T11:18:48.320Z,99.90
2022-08-16T11:21:28.551Z,99.90
2022-08-16T11:23:58.648Z,99.90
2022-08-16T11:26:26.736Z,99.90
2022-08-16T11:31:45.924Z,99.90
2022-08-16T11:34:21.281Z,99.90
2022-08-16T11:36:59.263Z,99.90
2022-08-16T11:39:28.254Z,99.90
2022-08-16T11:41:55.631Z,99.90
2022-08-16T11:44:52.957Z,99.90
2022-08-16T11:47:09.425Z,99.90
2022-08-16T11:49:36.155Z,99.80
2022-08-16T11:52:04.472Z,99.90
2022-08-16T11:54:33.205Z,99.90
2022-08-16T11:57:03.862Z,99.90
2022-08-16T11:59:36.903Z,99.90
2022-08-16T12:02:32.230Z,99.70
2022-08-16T12:04:55.463Z,99.90
2022-08-16T12:07:23.592Z,98.30
2022-08-16T12:09:50.653Z,99.90
2022-08-16T12:12:20.112Z,98.80
2022-08-16T12:14:46.898Z,99.40
2022-08-16T12:17:14.370Z,99.10
2022-08-16T12:19:41.890Z,97.10
2022-08-16T12:22:19.201Z,97.40
2022-08-16T12:24:51.919Z,97.40
2022-08-16T12:27:21.018Z,95.80
2022-08-16T12:29:50.978Z,94.30
2022-08-16T12:32:35.961Z,93.60
2022-08-16T12:35:08.554Z,92.50
2022-08-16T12:37:35.880Z,92.70
2022-08-16T12:40:06.757Z,90.70
2022-08-16T12:42:50.068Z,90.20
2022-08-16T12:45:22.269Z,91.20
2022-08-16T12:48:32.886Z,92.10
2022-08-16T12:50:56.953Z,92.00
2022-08-16T12:53:23.913Z,91.10
2022-08-16T12:55:52.867Z,91.70
2022-08-16T12:58:49.134Z,91.60
2022-08-16T13:01:08.070Z,91.60
2022-08-16T13:03:40.530Z,91.90
2022-08-16T13:06:08.354Z,91.70
2022-08-16T13:08:35.122Z,93.20
2022-08-16T13:11:04.617Z,93.20
2022-08-16T13:13:34.942Z,92.80
2022-08-16T13:16:15.202Z,93.90
2022-08-16T13:18:51.537Z,94.60
2022-08-16T13:21:23.721Z,93.90
2022-08-16T13:23:53.462Z,93.50
2022-08-16T13:26:24.108Z,93.50
2022-08-16T13:28:52.668Z,93.30
2022-08-16T13:31:19.517Z,91.50
2022-08-16T13:33:46.371Z,90.40
2022-08-16T13:39:00.878Z,88.60
2022-08-16T13:41:30.113Z,88.30
2022-08-16T13:43:59.527Z,90.00
2022-08-16T13:46:26.540Z,90.50
2022-08-16T13:48:53.424Z,92.40
2022-08-16T13:51:23.181Z,90.90
2022-08-16T13:53:58.285Z,91.40
2022-08-16T13:56:34.254Z,90.90
2022-08-16T13:59:06.483Z,90.20
2022-08-16T14:01:47.047Z,86.00
2022-08-16T14:04:26.657Z,84.30
2022-08-16T14:06:54.522Z,84.40
2022-08-16T14:09:21.637Z,80.10
2022-08-16T14:11:53.664Z,71.80
2022-08-16T14:14:28.276Z,66.30
2022-08-16T14:16:56.737Z,61.10
2022-08-16T14:19:23.613Z,60.00
2022-08-16T14:22:13.602Z,58.50
2022-08-16T14:24:46.710Z,58.20
2022-08-16T14:27:16.210Z,64.60
2022-08-16T14:29:44.067Z,69.60
2022-08-16T14:32:13.338Z,74.20
2022-08-16T14:34:59.263Z,77.00
2022-08-16T14:37:26.144Z,79.10
2022-08-16T14:39:54.776Z,78.50
2022-08-16T14:42:24.280Z,78.40
2022-08-16T14:44:52.281Z,77.40
2022-08-16T14:47:21.631Z,79.10
2022-08-16T14:49:48.395Z,77.00
2022-08-16T14:52:52.039Z,77.40
2022-08-16T14:55:11.885Z,74.50
2022-08-16T14:58:18.700Z,69.80
2022-08-16T15:00:51.552Z,70.10
2022-08-16T15:03:37.388Z,72.70
2022-08-16T15:06:05.053Z,74.60
2022-08-16T15:08:36.275Z,74.20
2022-08-16T15:11:04.744Z,73.10
2022-08-16T15:13:32.572Z,64.20
2022-08-16T15:16:02.927Z,60.20
2022-08-16T15:18:31.999Z,55.40
2022-08-16T15:20:58.927Z,52.30
2022-08-16T15:23:26.228Z,54.10
2022-08-16T15:26:02.882Z,55.60
2022-08-16T15:28:32.240Z,56.00
2022-08-16T15:31:03.915Z,54.60
2022-08-16T15:33:32.487Z,54.40
2022-08-16T15:35:59.647Z,51.90
2022-08-16T15:38:57.735Z,49.10
2022-08-16T15:41:47.494Z,48.20
2022-08-16T15:44:21.138Z,49.30
2022-08-16T15:46:55.600Z,52.20
2022-08-16T15:49:34.928Z,53.50
2022-08-16T15:52:11.786Z,58.40
2022-08-16T15:54:53.477Z,61.90
2022-08-16T15:57:23.723Z,63.20
2022-08-16T15:59:55.831Z,64.60
2022-08-16T16:02:29.513Z,66.60
2022-08-16T16:05:00.933Z,66.70
2022-08-16T16:07:30.584Z,67.10
2022-08-16T16:09:58.289Z,67.60
2022-08-16T16:15:15.455Z,67.70
2022-08-16T16:17:43.452Z,67.40
2022-08-16T16:20:14.922Z,67.80
2022-08-16T16:22:42.728Z,69.20
2022-08-16T16:25:09.992Z,69.20
2022-08-16T16:27:37.319Z,69.10
2022-08-16T16:30:33.357Z,69.00
2022-08-16T16:32:57.521Z,69.70
2022-08-16T16:35:27.141Z,69.10
2022-08-16T16:37:57.673Z,69.40
2022-08-16T16:40:32.909Z,69.10
2022-08-16T16:43:00.503Z,67.90
2022-08-16T16:45:34.892Z,67.90
2022-08-16T16:48:12.632Z,68.00
2022-08-16T16:50:40.499Z,68.20
2022-08-16T16:53:17.167Z,69.30
2022-08-16T16:55:51.898Z,69.00
2022-08-16T16:58:37.822Z,68.70
2022-08-16T17:01:05.191Z,69.20
2022-08-16T17:03:33.478Z,70.20
2022-08-16T17:06:03.168Z,71.30
2022-08-16T17:08:37.566Z,70.50
2022-08-16T17:11:08.189Z,70.50
2022-08-16T17:13:35.352Z,71.60
2022-08-16T17:16:02.215Z,72.80
2022-08-16T17:19:15.123Z,73.00
2022-08-16T17:21:17.804Z,75.00
2022-08-16T17:23:59.448Z,73.40
2022-08-16T17:26:30.120Z,75.70
2022-08-16T17:29:02.809Z,74.90
2022-08-16T17:31:43.168Z,76.70
2022-08-16T17:34:28.456Z,77.80
2022-08-16T17:36:59.569Z,74.60
2022-08-16T17:39:29.496Z,75.20
2022-08-16T17:41:57.528Z,75.40
2022-08-16T17:44:26.697Z,74.70
2022-08-16T17:46:53.417Z,78.30
2022-08-16T17:49:20.214Z,79.90
2022-08-16T17:51:47.243Z,81.30
2022-08-16T17:54:20.335Z,82.20
2022-08-16T17:56:57.859Z,83.50
2022-08-16T17:59:24.976Z,84.40
2022-08-16T18:01:52.701Z,85.50
2022-08-16T18:04:49.899Z,85.80
2022-08-16T18:07:07.717Z,86.50
2022-08-16T18:09:35.370Z,88.60
2022-08-16T18:12:11.695Z,89.30
2022-08-16T18:15:00.269Z,89.10
2022-08-16T18:17:27.423Z,90.30
2022-08-16T18:19:54.292Z,90.60
2022-08-16T18:22:30.572Z,91.00
2022-08-16T18:24:59.337Z,91.40
2022-08-16T18:27:29.144Z,91.30
2022-08-16T18:29:55.989Z,92.40
2022-08-16T18:32:24.398Z,93.00
2022-08-16T18:34:52.321Z,93.30
2022-08-16T18:37:19.430Z,93.50
2022-08-16T18:39:46.406Z,93.80
2022-08-16T18:42:15.040Z,93.90
2022-08-16T18:44:43.108Z,94.30
2022-08-16T18:47:10.191Z,94.50
2022-08-16T18:49:36.945Z,94.40
2022-08-16T18:52:04.255Z,95.10
2022-08-16T18:54:32.735Z,95.30
2022-08-16T18:57:01.519Z,96.10
2022-08-16T18:59:32.480Z,96.80
2022-08-16T19:02:05.215Z,97.60
2022-08-16T19:04:56.256Z,98.20
2022-08-16T19:07:21.188Z,98.90
2022-08-16T19:09:48.021Z,99.50
2022-08-16T19:12:16.084Z,99.90
2022-08-16T19:14:44.693Z,99.90
2022-08-16T19:17:11.542Z,99.90
2022-08-16T19:19:38.275Z,99.90
2022-08-16T19:22:05.872Z,99.90
2022-08-16T19:24:32.660Z,99.90
2022-08-16T19:26:59.426Z,99.90
2022-08-16T19:29:28.581Z,99.90
2022-08-16T19:31:57.434Z,99.90
2022-08-16T19:34:24.721Z,99.90
2022-08-16T19:36:51.905Z,99.90
2022-08-16T19:39:19.299Z,99.90
2022-08-16T19:41:52.022Z,99.90
2022-08-16T19:44:21.219Z,99.90
2022-08-16T19:46:48.902Z,99.90
2022-08-16T19:49:17.107Z,99.90
2022-08-16T19:51:44.745Z,99.90
2022-08-16T19:54:11.577Z,99.90
2022-08-16T19:56:38.350Z,99.90
2022-08-16T19:59:21.904Z,99.90
2022-08-16T20:01:51.199Z,99.90
2022-08-16T20:04:18.778Z,99.90
2022-08-16T20:06:46.208Z,99.90
2022-08-16T20:09:16.279Z,99.90
2022-08-16T20:11:44.031Z,99.90
2022-08-16T20:14:24.586Z,99.90
2022-08-16T20:16:53.805Z,99.90
2022-08-16T20:19:21.776Z,99.90
2022-08-16T20:21:49.102Z,99.90
2022-08-16T20:24:33.427Z,99.90
2022-08-16T20:27:02.201Z,99.90
2022-08-16T20:29:29.073Z,99.90
2022-08-16T20:31:56.136Z,99.90
2022-08-16T20:34:23.614Z,99.90
2022-08-16T20:36:50.368Z,99.90
2022-08-16T20:39:17.199Z,99.90
2022-08-16T20:41:44.017Z,99.90
2022-08-16T20:44:12.246Z,99.90
2022-08-16T20:46:39.788Z,99.90
2022-08-16T20:49:08.922Z,99.90
2022-08-16T20:51:46.724Z,99.90
2022-08-16T20:54:16.857Z,99.90
2022-08-16T20:56:43.729Z,99.90
2022-08-16T20:59:10.537Z,99.90
2022-08-16T21:01:46.577Z,99.90
2022-08-16T21:04:17.662Z,99.90
2022-08-16T21:06:53.647Z,99.90
2022-08-16T21:09:22.616Z,99.90
2022-08-16T21:11:51.157Z,99.90
2022-08-16T21:14:17.894Z,99.90
2022-08-16T21:16:45.071Z,99.90
2022-08-16T21:19:11.942Z,99.90
2022-08-16T21:21:38.711Z,99.90
2022-08-16T21:24:06.385Z,99.90
2022-08-16T21:26:35.476Z,99.90
2022-08-16T21:29:07.720Z,99.90
2022-08-16T21:31:39.623Z,99.90
2022-08-16T21:34:07.300Z,99.90
2022-08-16T21:36:36.484Z,99.90
2022-08-16T21:39:05.791Z,99.90
2022-08-16T21:41:33.081Z,99.90
2022-08-16T21:43:59.848Z,99.90
2022-08-16T21:46:26.561Z,99.90
2022-08-16T21:48:53.290Z,99.90
2022-08-16T21:51:20.615Z,99.90
2022-08-16T21:53:48.242Z,99.90
2022-08-16T21:56:17.253Z,99.90
2022-08-16T21:58:44.388Z,99.90
2022-08-16T22:01:11.539Z,99.90
2022-08-16T22:03:38.431Z,99.90
2022-08-16T22:06:12.982Z,99.90
2022-08-16T22:08:50.600Z,99.90
2022-08-16T22:11:19.063Z,99.90
2022-08-16T22:13:56.438Z,99.90
2022-08-16T22:16:27.381Z,99.90
2022-08-16T22:18:54.116Z,99.90
2022-08-16T22:21:20.893Z,99.90
2022-08-16T22:23:57.040Z,99.90
2022-08-16T22:26:29.854Z,99.90
2022-08-16T22:28:58.653Z,99.90
2022-08-16T22:31:25.947Z,99.90
2022-08-16T22:33:52.742Z,99.90
2022-08-16T22:36:19.613Z,99.90
2022-08-16T22:38:55.896Z,99.90
2022-08-16T22:41:24.059Z,99.90
2022-08-16T22:43:51.593Z,99.90
2022-08-16T22:46:18.685Z,99.90
2022-08-16T22:48:45.575Z,99.90
2022-08-16T22:51:12.360Z,99.90
2022-08-16T22:53:39.073Z,99.90
2022-08-16T22:56:06.206Z,99.90
2022-08-16T22:58:37.058Z,99.90
2022-08-16T23:01:05.011Z,99.90
2022-08-16T23:03:31.750Z,99.90
2022-08-16T23:05:59.677Z,99.90
2022-08-16T23:08:35.904Z,99.90
2022-08-16T23:11:08.572Z,99.90
2022-08-16T23:13:35.463Z,99.90
2022-08-16T23:16:10.602Z,99.90
2022-08-16T23:18:38.963Z,99.90
2022-08-16T23:21:09.066Z,99.90
2022-08-16T23:23:36.482Z,99.90
2022-08-16T23:26:47.204Z,99.90
2022-08-16T23:28:51.393Z,99.90
2022-08-16T23:31:19.023Z,99.90
2022-08-16T23:33:45.844Z,99.90
2022-08-16T23:36:13.200Z,99.90
2022-08-16T23:38:50.712Z,99.90
2022-08-16T23:41:17.445Z,99.90
2022-08-16T23:43:44.153Z,99.90
2022-08-16T23:46:14.842Z,99.90
2022-08-16T23:49:55.844Z,99.90
2022-08-16T23:51:31.567Z,99.90
2022-08-16T23:53:59.237Z,99.90
2022-08-16T23:56:25.991Z,99.90
2022-08-16T23:58:54.449Z,99.90
